Time;durP1;ratioP1;P1;durP2;ratioP2;P2;SDS_P1;SDS_P2;PMS_P1;PMS_P2;Temp;Humidity;BMP_temperature;BMP_pressure;BME280_temperature;BME280_humidity;BME280_pressure;Samples;Min_cycle;Max_cycle;Signal;HPM_P1;HPM_P2
2022/03/06 00:01:04;;;;;;;10.07;4.35;;;4.30;99.90;;;;;;5029670;28;20025;-62
2022/03/06 00:03:30;;;;;;;8.70;3.88;;;4.40;99.90;;;;;;5022395;28;20102;-59
2022/03/06 00:05:56;;;;;;;11.05;4.07;;;4.40;99.90;;;;;;5032076;28;20091;-61
2022/03/06 00:08:21;;;;;;;10.52;4.68;;;4.40;99.90;;;;;;5013087;28;20443;-60
2022/03/06 00:10:48;;;;;;;11.55;5.13;;;4.40;99.90;;;;;;5014883;28;20053;-60
2022/03/06 00:13:14;;;;;;;10.38;4.22;;;4.40;99.90;;;;;;5004993;28;20034;-60
2022/03/06 00:15:41;;;;;;;13.13;4.38;;;4.40;99.90;;;;;;4995460;28;20112;-60
2022/03/06 00:18:07;;;;;;;14.65;5.35;;;4.40;99.90;;;;;;4996217;28;20049;-60
2022/03/06 00:20:33;;;;;;;10.38;4.68;;;4.40;99.90;;;;;;5018860;28;20479;-59
2022/03/06 00:22:59;;;;;;;9.95;4.00;;;4.50;99.90;;;;;;5034970;28;20036;-59
2022/03/06 00:25:24;;;;;;;7.53;4.15;;;4.50;99.90;;;;;;5005584;28;20558;-60
2022/03/06 00:27:50;;;;;;;14.30;4.60;;;4.40;99.90;;;;;;4994867;28;20097;-60
2022/03/06 00:30:16;;;;;;;9.27;4.57;;;4.40;99.90;;;;;;5008658;28;20065;-60
2022/03/06 00:32:41;;;;;;;11.20;4.15;;;4.30;99.90;;;;;;4995635;28;20128;-61
2022/03/06 00:35:08;;;;;;;10.18;4.35;;;4.40;99.90;;;;;;4995679;28;20263;-60
2022/03/06 00:37:34;;;;;;;9.07;3.92;;;4.40;99.90;;;;;;4999838;28;20038;-61
2022/03/06 00:40:00;;;;;;;10.23;4.40;;;4.30;99.90;;;;;;4995906;28;21079;-62
2022/03/06 00:42:25;;;;;;;8.30;3.80;;;4.30;99.90;;;;;;5006763;28;20459;-62
2022/03/06 00:44:52;;;;;;;10.82;4.13;;;4.20;99.90;;;;;;5030624;28;20091;-62
2022/03/06 00:47:18;;;;;;;10.00;4.03;;;4.20;99.90;;;;;;5035239;28;20033;-62
2022/03/06 00:49:44;;;;;;;15.73;4.90;;;4.30;99.90;;;;;;5010221;28;20377;-62
2022/03/06 00:52:09;;;;;;;13.27;5.70;;;4.30;99.90;;;;;;5026118;28;20500;-62
2022/03/06 00:54:35;;;;;;;10.73;5.00;;;4.30;99.90;;;;;;5033449;28;20140;-63
2022/03/06 00:57:00;;;;;;;11.57;4.53;;;4.30;99.90;;;;;;5019290;28;20030;-62
2022/03/06 00:59:32;;;;;;;12.55;5.10;;;4.30;99.90;;;;;;5015354;28;20025;-62
2022/03/06 01:01:59;;;;;;;11.30;5.03;;;4.20;99.90;;;;;;5009011;28;20037;-62
2022/03/06 01:04:24;;;;;;;8.48;4.78;;;4.20;99.90;;;;;;5000750;28;20041;-62
2022/03/06 01:06:50;;;;;;;9.77;4.80;;;4.10;99.90;;;;;;5006824;28;20018;-61
2022/03/06 01:09:15;;;;;;;10.27;4.43;;;4.10;99.90;;;;;;4996798;28;20049;-63
2022/03/06 01:11:41;;;;;;;16.25;6.47;;;4.10;99.90;;;;;;4995281;28;20049;-62
2022/03/06 01:14:07;;;;;;;17.17;6.13;;;4.10;99.90;;;;;;4994197;28;20042;-63
2022/03/06 01:16:32;;;;;;;13.35;5.97;;;4.10;99.90;;;;;;5002007;28;20042;-60
2022/03/06 01:18:58;;;;;;;11.40;5.90;;;4.10;99.90;;;;;;4992323;28;20108;-62
2022/03/06 01:21:24;;;;;;;18.15;6.22;;;4.10;99.90;;;;;;4990011;28;20038;-63
2022/03/06 01:23:49;;;;;;;13.73;6.03;;;4.00;99.90;;;;;;4993959;28;20476;-64
2022/03/06 01:26:17;;;;;;;13.85;6.75;;;4.00;99.90;;;;;;4991336;28;20054;-62
2022/03/06 01:28:43;;;;;;;17.17;7.35;;;4.00;99.90;;;;;;4991259;28;20034;-59
2022/03/06 01:31:08;;;;;;;14.45;6.78;;;4.10;99.90;;;;;;5005701;28;20033;-61
2022/03/06 01:33:34;;;;;;;14.43;6.47;;;4.00;99.90;;;;;;4991090;28;20396;-61
2022/03/06 01:36:00;;;;;;;16.15;6.40;;;4.00;99.90;;;;;;4990429;28;20088;-61
2022/03/06 01:38:25;;;;;;;13.43;6.15;;;3.90;99.90;;;;;;4991828;28;20291;-61
2022/03/06 01:40:51;;;;;;;14.60;6.88;;;3.90;99.90;;;;;;4992088;28;20125;-60
2022/03/06 01:43:17;;;;;;;17.58;6.75;;;4.00;99.90;;;;;;4991563;28;20030;-60
2022/03/06 01:45:42;;;;;;;13.82;6.78;;;4.00;99.90;;;;;;5004052;28;20477;-60
2022/03/06 01:48:09;;;;;;;17.38;7.45;;;4.00;99.90;;;;;;4996081;28;20399;-59
2022/03/06 01:50:35;;;;;;;12.98;6.15;;;3.90;99.90;;;;;;4993330;28;20034;-60
2022/03/06 01:53:05;;;;;;;14.50;6.90;;;3.90;99.90;;;;;;4992625;28;20136;-60
2022/03/06 01:55:31;;;;;;;15.52;6.82;;;3.80;99.90;;;;;;4990761;28;20193;-61
2022/03/06 01:57:59;;;;;;;14.45;6.72;;;3.80;99.90;;;;;;4992233;28;20034;-60
2022/03/06 02:00:28;;;;;;;16.40;7.22;;;3.80;99.90;;;;;;4992369;28;20447;-62
2022/03/06 02:02:54;;;;;;;12.38;6.07;;;3.70;99.90;;;;;;4996314;28;20038;-59
2022/03/06 02:05:21;;;;;;;16.52;7.63;;;3.70;99.90;;;;;;4991906;28;20079;-61
2022/03/06 02:07:47;;;;;;;14.73;6.75;;;3.80;99.90;;;;;;4995941;28;20081;-61
2022/03/06 02:10:14;;;;;;;13.27;6.75;;;3.80;99.90;;;;;;4991597;28;20487;-61
2022/03/06 02:12:40;;;;;;;12.60;5.68;;;3.80;99.90;;;;;;4991276;28;20022;-62
2022/03/06 02:15:09;;;;;;;12.90;6.20;;;3.70;99.90;;;;;;5004512;28;20029;-61
2022/03/06 02:17:37;;;;;;;12.80;5.78;;;3.60;99.90;;;;;;4990810;28;20408;-60
2022/03/06 02:20:07;;;;;;;10.85;5.15;;;3.60;99.90;;;;;;5011135;28;20487;-59
2022/03/06 02:22:39;;;;;;;15.02;5.45;;;3.60;99.90;;;;;;5024471;28;20109;-60
2022/03/06 02:25:08;;;;;;;12.77;6.35;;;3.60;99.90;;;;;;4991126;28;20034;-61
2022/03/06 02:27:34;;;;;;;11.77;5.22;;;3.70;99.90;;;;;;4989789;28;20176;-61
2022/03/06 02:29:59;;;;;;;12.55;5.00;;;3.70;99.90;;;;;;4990916;28;20040;-61
2022/03/06 02:32:25;;;;;;;8.45;5.47;;;3.70;99.90;;;;;;5002978;28;20057;-60
2022/03/06 02:34:51;;;;;;;10.55;4.95;;;3.60;99.90;;;;;;4990245;28;20080;-62
2022/03/06 02:37:20;;;;;;;7.88;4.70;;;3.60;99.90;;;;;;4992740;28;20071;-62
2022/03/06 02:39:46;;;;;;;11.48;5.20;;;3.60;99.90;;;;;;4991395;28;20095;-62
2022/03/06 02:42:31;;;;;;;13.57;5.50;;;3.60;99.90;;;;;;4993129;28;20038;-62
2022/03/06 02:44:59;;;;;;;13.30;5.28;;;3.60;99.90;;;;;;5010036;28;20022;-61
2022/03/06 02:47:26;;;;;;;11.45;5.40;;;3.60;99.90;;;;;;5026462;28;20036;-59
2022/03/06 02:49:52;;;;;;;11.70;5.03;;;3.50;99.90;;;;;;5012855;28;20495;-63
2022/03/06 02:52:18;;;;;;;10.60;4.95;;;3.60;99.90;;;;;;5003321;28;20045;-62
2022/03/06 02:54:44;;;;;;;11.27;4.90;;;3.50;99.90;;;;;;5002861;28;20044;-61
2022/03/06 02:57:10;;;;;;;11.35;4.57;;;3.60;99.90;;;;;;5021505;28;20025;-61
2022/03/06 02:59:36;;;;;;;11.30;4.70;;;3.60;99.90;;;;;;5003598;28;20038;-62
2022/03/06 03:02:04;;;;;;;12.68;4.95;;;3.60;99.90;;;;;;4992856;28;20495;-61
2022/03/06 03:04:31;;;;;;;9.18;4.43;;;3.60;99.90;;;;;;5016821;28;20022;-60
2022/03/06 03:06:56;;;;;;;12.68;4.75;;;3.60;99.90;;;;;;5012051;28;20033;-60
2022/03/06 03:09:22;;;;;;;11.82;5.18;;;3.50;99.90;;;;;;5017331;28;20038;-57
2022/03/06 03:11:50;;;;;;;9.82;4.43;;;3.60;99.90;;;;;;5018667;28;20034;-61
2022/03/06 03:14:17;;;;;;;14.30;4.72;;;3.60;99.90;;;;;;5017039;28;20482;-60
2022/03/06 03:16:43;;;;;;;11.02;4.35;;;3.50;99.90;;;;;;5019036;28;20107;-61
2022/03/06 03:19:08;;;;;;;8.85;4.57;;;3.60;99.90;;;;;;5016098;28;20113;-61
2022/03/06 03:21:35;;;;;;;12.35;5.22;;;3.60;99.90;;;;;;5021354;28;20037;-61
2022/03/06 03:24:01;;;;;;;10.65;5.22;;;3.60;99.90;;;;;;5016414;28;20383;-58
2022/03/06 03:26:27;;;;;;;9.07;4.50;;;3.60;99.90;;;;;;5013555;28;20041;-60
2022/03/06 03:28:52;;;;;;;9.85;4.63;;;3.60;99.90;;;;;;5019011;28;20465;-58
2022/03/06 03:31:18;;;;;;;13.38;4.80;;;3.50;99.90;;;;;;5019538;28;20125;-60
2022/03/06 03:33:44;;;;;;;10.88;4.70;;;3.60;99.90;;;;;;5019214;28;20033;-60
2022/03/06 03:36:10;;;;;;;12.95;4.43;;;3.60;99.90;;;;;;5016849;28;20415;-58
2022/03/06 03:38:36;;;;;;;9.00;4.47;;;3.60;99.90;;;;;;5019445;28;20036;-60
2022/03/06 03:41:01;;;;;;;16.88;4.32;;;3.60;99.90;;;;;;5014482;28;20034;-58
2022/03/06 03:43:28;;;;;;;11.00;4.72;;;3.60;99.90;;;;;;5013778;28;20038;-60
2022/03/06 03:45:54;;;;;;;10.80;3.83;;;3.60;99.90;;;;;;5017323;28;20054;-60
2022/03/06 03:48:20;;;;;;;7.93;3.78;;;3.50;99.90;;;;;;5017748;28;20111;-59
2022/03/06 03:50:45;;;;;;;14.30;4.00;;;3.60;99.90;;;;;;5018729;28;20076;-58
2022/03/06 03:53:11;;;;;;;10.93;4.38;;;3.60;99.90;;;;;;5022614;28;20195;-61
2022/03/06 03:55:36;;;;;;;11.57;4.13;;;3.50;99.90;;;;;;5019789;28;20104;-59
2022/03/06 03:58:02;;;;;;;8.70;4.30;;;3.50;99.90;;;;;;5014286;28;20064;-60
2022/03/06 04:00:28;;;;;;;12.75;4.20;;;3.50;99.90;;;;;;5020107;28;20025;-62
2022/03/06 04:02:54;;;;;;;8.93;4.13;;;3.50;99.90;;;;;;5013576;28;20041;-61
2022/03/06 04:05:20;;;;;;;8.55;4.07;;;3.60;99.90;;;;;;5019604;28;20044;-60
2022/03/06 04:07:46;;;;;;;9.85;4.20;;;3.60;99.90;;;;;;5014039;28;20551;-59
2022/03/06 04:10:11;;;;;;;9.18;3.97;;;3.60;99.90;;;;;;5020254;28;20105;-60
2022/03/06 04:12:37;;;;;;;13.70;4.20;;;3.50;99.90;;;;;;5013561;28;20048;-61
2022/03/06 04:15:03;;;;;;;11.68;4.07;;;3.50;99.90;;;;;;5009814;28;20345;-61
2022/03/06 04:17:29;;;;;;;13.25;5.13;;;3.60;99.90;;;;;;5019049;28;20030;-58
2022/03/06 04:19:54;;;;;;;8.45;3.65;;;3.50;99.90;;;;;;5017471;28;20038;-59
2022/03/06 04:22:20;;;;;;;8.25;4.03;;;3.50;99.90;;;;;;5010677;28;20084;-58
2022/03/06 04:24:45;;;;;;;10.27;4.70;;;3.40;99.90;;;;;;5016879;28;20113;-60
2022/03/06 04:27:11;;;;;;;8.02;4.03;;;3.50;99.90;;;;;;5017915;28;20033;-60
2022/03/06 04:29:36;;;;;;;11.25;4.38;;;3.40;99.90;;;;;;5016550;28;20026;-61
2022/03/06 04:32:03;;;;;;;7.90;3.78;;;3.40;99.90;;;;;;5019589;28;20133;-58
2022/03/06 04:34:29;;;;;;;13.70;4.43;;;3.40;99.90;;;;;;5015462;28;20041;-63
2022/03/06 04:36:54;;;;;;;13.15;5.45;;;3.40;99.90;;;;;;5018915;28;20092;-60
2022/03/06 04:39:20;;;;;;;10.02;3.72;;;3.40;99.90;;;;;;5017193;28;20117;-61
2022/03/06 04:41:45;;;;;;;11.48;3.65;;;3.30;99.90;;;;;;5016973;28;20038;-59
2022/03/06 04:44:13;;;;;;;9.73;3.42;;;3.30;99.90;;;;;;5018754;28;21516;-60
2022/03/06 04:46:38;;;;;;;6.85;3.22;;;3.30;99.90;;;;;;5023541;28;20033;-61
2022/03/06 04:49:04;;;;;;;7.97;3.25;;;3.30;99.90;;;;;;5027264;28;20018;-61
2022/03/06 04:51:30;;;;;;;8.07;3.30;;;3.30;99.90;;;;;;5023520;28;20033;-61
2022/03/06 04:53:56;;;;;;;7.40;3.03;;;3.20;99.90;;;;;;5015200;28;20418;-61
2022/03/06 04:56:22;;;;;;;5.47;2.90;;;3.30;99.90;;;;;;5019704;28;20029;-60
2022/03/06 04:58:47;;;;;;;7.30;2.75;;;3.30;99.90;;;;;;5024891;28;20039;-59
2022/03/06 05:01:13;;;;;;;10.73;3.10;;;3.20;99.90;;;;;;5020211;28;20392;-59
2022/03/06 05:03:38;;;;;;;6.95;2.78;;;3.20;99.90;;;;;;5024222;28;20057;-61
2022/03/06 05:06:04;;;;;;;10.02;3.40;;;3.30;99.90;;;;;;5019992;28;20458;-57
2022/03/06 05:08:30;;;;;;;9.18;3.00;;;3.20;99.90;;;;;;5011403;28;20014;-59
2022/03/06 05:10:55;;;;;;;8.75;3.30;;;3.20;99.90;;;;;;5023912;28;20064;-61
2022/03/06 05:13:22;;;;;;;10.95;3.00;;;3.30;99.90;;;;;;5022794;28;20021;-59
2022/03/06 05:15:48;;;;;;;6.53;2.95;;;3.30;99.90;;;;;;5019913;28;20025;-59
2022/03/06 05:18:13;;;;;;;8.23;3.95;;;3.30;99.90;;;;;;5018866;28;20497;-62
2022/03/06 05:20:39;;;;;;;8.13;3.20;;;3.30;99.90;;;;;;5019650;28;20473;-60
2022/03/06 05:23:05;;;;;;;6.40;3.28;;;3.30;99.90;;;;;;5015781;28;20455;-62
2022/03/06 05:25:31;;;;;;;8.55;3.20;;;3.30;99.90;;;;;;5022499;28;20029;-63
2022/03/06 05:27:57;;;;;;;8.77;3.95;;;3.30;99.90;;;;;;5019489;28;20412;-63
2022/03/06 05:30:23;;;;;;;9.13;3.20;;;3.30;99.90;;;;;;5019784;28;20032;-59
2022/03/06 05:32:48;;;;;;;11.40;3.67;;;3.30;99.90;;;;;;5016541;28;20040;-60
2022/03/06 05:35:15;;;;;;;9.88;3.22;;;3.30;99.90;;;;;;5023167;28;20427;-59
2022/03/06 05:37:40;;;;;;;16.42;3.88;;;3.30;99.90;;;;;;5032452;28;20099;-57
2022/03/06 05:40:07;;;;;;;9.43;3.75;;;3.20;99.90;;;;;;5013676;28;20065;-56
2022/03/06 05:42:33;;;;;;;8.15;3.88;;;3.20;99.90;;;;;;5019089;28;20041;-56
2022/03/06 05:44:59;;;;;;;11.90;3.88;;;3.20;99.90;;;;;;5021049;28;20028;-60
2022/03/06 05:47:25;;;;;;;45.65;22.52;;;3.20;99.90;;;;;;5023429;28;20284;-57
2022/03/06 05:49:50;;;;;;;17.40;9.45;;;3.20;99.90;;;;;;5014160;28;20045;-55
2022/03/06 05:52:19;;;;;;;9.60;4.70;;;3.20;99.90;;;;;;5022457;28;20037;-57
2022/03/06 05:54:45;;;;;;;8.13;3.97;;;3.20;99.90;;;;;;5019568;28;20480;-58
2022/03/06 05:57:10;;;;;;;9.02;3.90;;;3.20;99.90;;;;;;5038066;28;20032;-59
2022/03/06 05:59:36;;;;;;;6.47;3.53;;;3.20;99.90;;;;;;5021853;28;20037;-60
2022/03/06 06:02:02;;;;;;;8.30;4.10;;;3.10;99.90;;;;;;5011142;28;20381;-59
2022/03/06 06:04:27;;;;;;;8.63;4.18;;;3.10;99.90;;;;;;5018354;28;20296;-60
2022/03/06 06:06:53;;;;;;;12.38;4.15;;;3.10;99.90;;;;;;5020126;28;20034;-61
2022/03/06 06:09:18;;;;;;;10.57;4.47;;;3.10;99.90;;;;;;5016928;28;20022;-60
2022/03/06 06:11:44;;;;;;;9.68;3.75;;;3.10;99.90;;;;;;5018965;28;20022;-58
2022/03/06 06:14:10;;;;;;;8.13;4.65;;;3.00;99.90;;;;;;5022154;28;20033;-59
2022/03/06 06:16:36;;;;;;;8.40;4.80;;;3.10;99.90;;;;;;5017890;28;20526;-60
2022/03/06 06:19:02;;;;;;;14.15;6.72;;;3.10;99.90;;;;;;5017975;28;20038;-61
2022/03/06 06:21:28;;;;;;;9.00;5.53;;;3.00;99.90;;;;;;5017732;28;20026;-59
2022/03/06 06:23:53;;;;;;;16.10;10.65;;;3.00;99.90;;;;;;5017238;28;20045;-60
2022/03/06 06:26:19;;;;;;;14.77;6.72;;;3.00;99.90;;;;;;5034334;28;20022;-60
2022/03/06 06:28:45;;;;;;;9.48;4.82;;;3.00;99.90;;;;;;5027421;28;20124;-59
2022/03/06 06:31:11;;;;;;;12.48;4.03;;;3.10;99.90;;;;;;5018773;28;20026;-60
2022/03/06 06:33:36;;;;;;;9.30;3.92;;;3.10;99.90;;;;;;5015591;28;20038;-60
2022/03/06 06:36:06;;;;;;;10.48;3.97;;;3.10;99.90;;;;;;5015968;28;20455;-60
2022/03/06 06:38:31;;;;;;;11.18;4.40;;;3.10;99.90;;;;;;5018319;28;20034;-61
2022/03/06 06:40:57;;;;;;;34.60;25.55;;;3.10;99.90;;;;;;5021062;28;20040;-61
2022/03/06 06:43:23;;;;;;;17.27;11.13;;;3.10;99.90;;;;;;5017510;28;20041;-59
2022/03/06 06:45:48;;;;;;;9.38;5.40;;;3.20;99.90;;;;;;5016982;28;20463;-60
2022/03/06 06:48:14;;;;;;;9.90;5.05;;;3.20;99.90;;;;;;5021165;28;20017;-63
2022/03/06 06:50:40;;;;;;;7.80;4.85;;;3.20;99.90;;;;;;5018319;28;20044;-64
2022/03/06 06:53:06;;;;;;;9.43;3.97;;;3.20;99.90;;;;;;5027442;28;20026;-62
2022/03/06 06:55:34;;;;;;;17.60;11.73;;;3.20;99.90;;;;;;5020122;28;20108;-63
2022/03/06 06:58:01;;;;;;;7.90;4.50;;;3.20;99.90;;;;;;5016632;28;20080;-63
2022/03/06 07:00:27;;;;;;;9.70;4.22;;;3.20;99.90;;;;;;5023887;28;20473;-64
2022/03/06 07:02:52;;;;;;;9.85;5.35;;;3.20;99.90;;;;;;5008948;28;20117;-63
2022/03/06 07:05:18;;;;;;;6.88;4.30;;;3.20;99.90;;;;;;5014361;28;20022;-64
2022/03/06 07:07:44;;;;;;;6.75;4.18;;;3.20;99.90;;;;;;5019291;28;20033;-64
2022/03/06 07:10:09;;;;;;;8.15;3.97;;;3.30;99.90;;;;;;5018260;28;20029;-63
2022/03/06 07:12:46;;;;;;;6.47;3.90;;;3.30;99.90;;;;;;5014893;28;20037;-63
2022/03/06 07:15:14;;;;;;;7.38;3.95;;;3.30;99.90;;;;;;5015857;28;20116;-64
2022/03/06 07:17:40;;;;;;;7.75;3.75;;;3.30;99.90;;;;;;5017344;28;20089;-63
2022/03/06 07:20:07;;;;;;;5.50;3.40;;;3.30;99.90;;;;;;5023414;28;20032;-64
2022/03/06 07:22:32;;;;;;;4.97;3.45;;;3.30;99.90;;;;;;5024740;28;20034;-62
2022/03/06 07:24:58;;;;;;;5.80;3.58;;;3.30;99.90;;;;;;5013859;28;20498;-64
2022/03/06 07:27:23;;;;;;;9.85;3.80;;;3.40;99.90;;;;;;5016657;28;20045;-64
2022/03/06 07:29:49;;;;;;;8.98;4.00;;;3.30;99.90;;;;;;5014538;28;20034;-64
2022/03/06 07:32:16;;;;;;;7.28;3.85;;;3.40;99.90;;;;;;5018836;28;20052;-62
2022/03/06 07:34:41;;;;;;;10.45;4.22;;;3.40;99.90;;;;;;5007890;28;20052;-63
2022/03/06 07:37:07;;;;;;;6.13;3.67;;;3.40;99.90;;;;;;5022043;28;20555;-63
2022/03/06 07:39:33;;;;;;;11.05;4.05;;;3.50;99.90;;;;;;5022975;28;20057;-64
2022/03/06 07:41:59;;;;;;;7.57;3.70;;;3.40;99.90;;;;;;5016518;28;20121;-62
2022/03/06 07:44:25;;;;;;;15.82;4.43;;;3.40;99.90;;;;;;5015435;28;20030;-64
2022/03/06 07:46:50;;;;;;;9.35;3.80;;;3.50;99.90;;;;;;5015993;28;20045;-63
2022/03/06 07:49:16;;;;;;;6.97;3.53;;;3.50;99.90;;;;;;5014234;28;20180;-64
2022/03/06 07:51:41;;;;;;;8.43;4.00;;;3.60;99.90;;;;;;5019136;28;20391;-64
2022/03/06 07:54:12;;;;;;;8.85;3.95;;;3.70;99.90;;;;;;5013189;28;20120;-63
2022/03/06 07:56:38;;;;;;;13.70;4.97;;;3.80;99.90;;;;;;5019568;28;20029;-61
2022/03/06 07:59:03;;;;;;;8.35;5.00;;;3.80;99.90;;;;;;5017702;28;20052;-61
2022/03/06 08:01:29;;;;;;;13.70;9.63;;;3.80;99.90;;;;;;5019596;28;20145;-61
2022/03/06 08:03:54;;;;;;;19.92;13.50;;;3.90;99.90;;;;;;5026552;28;20056;-59
2022/03/06 08:06:20;;;;;;;14.57;8.73;;;3.90;99.90;;;;;;5013055;28;20068;-60
2022/03/06 08:08:46;;;;;;;9.75;4.78;;;3.90;99.90;;;;;;5017496;28;20018;-60
2022/03/06 08:11:11;;;;;;;9.18;5.20;;;3.90;99.90;;;;;;5020804;28;20494;-59
2022/03/06 08:13:37;;;;;;;9.18;5.00;;;4.00;99.90;;;;;;5010831;28;20026;-60
2022/03/06 08:16:03;;;;;;;11.07;4.53;;;4.00;99.90;;;;;;5018125;28;20029;-60
2022/03/06 08:18:28;;;;;;;7.88;3.90;;;4.00;99.90;;;;;;5018509;28;20136;-62
2022/03/06 08:20:54;;;;;;;12.93;6.57;;;4.00;99.90;;;;;;5016261;28;20168;-59
2022/03/06 08:23:19;;;;;;;15.15;7.28;;;4.00;99.90;;;;;;5011945;28;20052;-60
2022/03/06 08:25:45;;;;;;;11.43;4.38;;;3.90;99.90;;;;;;5014781;28;20033;-61
2022/03/06 08:28:11;;;;;;;7.22;3.40;;;3.80;99.90;;;;;;5024317;28;20384;-60
2022/03/06 08:30:36;;;;;;;11.93;3.55;;;3.70;99.90;;;;;;5010870;28;20030;-61
2022/03/06 08:33:02;;;;;;;4.63;3.20;;;3.70;99.90;;;;;;5011021;28;20558;-60
2022/03/06 08:35:28;;;;;;;7.32;2.88;;;3.80;99.90;;;;;;5011840;28;20029;-62
2022/03/06 08:37:53;;;;;;;3.92;2.60;;;3.80;99.90;;;;;;5018630;28;20055;-59
2022/03/06 08:40:19;;;;;;;6.25;3.10;;;3.90;99.90;;;;;;5020229;28;20026;-61
2022/03/06 08:42:45;;;;;;;4.65;2.85;;;4.00;99.90;;;;;;5020793;28;20056;-60
2022/03/06 08:45:11;;;;;;;5.15;2.83;;;4.20;99.90;;;;;;5023339;28;20034;-62
2022/03/06 08:47:37;;;;;;;4.78;2.30;;;4.20;99.90;;;;;;5022918;28;20095;-60
2022/03/06 08:50:05;;;;;;;5.78;2.63;;;4.20;99.90;;;;;;5020337;28;20034;-61
2022/03/06 08:52:31;;;;;;;5.70;2.60;;;4.30;99.90;;;;;;5019865;28;20439;-61
2022/03/06 08:54:56;;;;;;;5.45;2.22;;;4.30;99.90;;;;;;5022341;28;20069;-62
2022/03/06 08:57:23;;;;;;;5.43;1.90;;;4.40;99.90;;;;;;5020667;28;20038;-60
2022/03/06 08:59:49;;;;;;;3.35;2.25;;;4.50;99.90;;;;;;5021668;28;20048;-62
2022/03/06 09:02:15;;;;;;;5.03;2.30;;;4.50;99.80;;;;;;5020175;28;20368;-60
2022/03/06 09:04:41;;;;;;;5.10;2.40;;;4.60;99.90;;;;;;5020310;28;20014;-61
2022/03/06 09:07:06;;;;;;;6.55;2.60;;;4.50;99.90;;;;;;5019671;28;20546;-59
2022/03/06 09:09:32;;;;;;;4.03;2.30;;;4.60;99.90;;;;;;5023675;28;20021;-60
2022/03/06 09:11:58;;;;;;;7.78;2.55;;;4.70;99.70;;;;;;5015545;28;20033;-61
2022/03/06 09:14:23;;;;;;;5.78;2.80;;;4.70;99.90;;;;;;5014937;28;20034;-59
2022/03/06 09:16:49;;;;;;;7.82;2.60;;;4.90;98.60;;;;;;5024436;28;20371;-61
2022/03/06 09:19:15;;;;;;;4.57;2.78;;;4.90;98.20;;;;;;5021992;28;20061;-59
2022/03/06 09:21:43;;;;;;;4.28;2.40;;;4.90;98.50;;;;;;5018686;28;20049;-58
2022/03/06 09:24:09;;;;;;;4.25;2.55;;;4.90;99.90;;;;;;5015620;28;20036;-61
2022/03/06 09:26:35;;;;;;;5.55;2.53;;;5.10;99.90;;;;;;5010301;28;20022;-62
2022/03/06 09:29:01;;;;;;;5.95;2.47;;;5.10;99.40;;;;;;5022515;28;20029;-59
2022/03/06 09:31:26;;;;;;;4.88;2.95;;;5.20;99.90;;;;;;5015924;28;20053;-60
2022/03/06 09:33:52;;;;;;;5.00;2.72;;;5.30;99.90;;;;;;5010963;28;20113;-59
2022/03/06 09:36:18;;;;;;;5.63;2.70;;;5.20;99.50;;;;;;5017851;28;20480;-60
2022/03/06 09:38:43;;;;;;;5.78;2.65;;;5.30;99.70;;;;;;5027477;28;20040;-59
2022/03/06 09:41:15;;;;;;;9.43;3.58;;;5.30;98.60;;;;;;5010293;28;20042;-60
2022/03/06 09:43:41;;;;;;;5.88;2.63;;;5.30;98.60;;;;;;5018184;28;20483;-60
2022/03/06 09:46:08;;;;;;;7.72;3.33;;;5.30;98.20;;;;;;5012723;28;20029;-60
2022/03/06 09:48:34;;;;;;;5.57;3.10;;;5.40;99.20;;;;;;5017643;28;20034;-61
2022/03/06 09:51:01;;;;;;;7.45;2.90;;;5.60;98.50;;;;;;5023036;28;20028;-60
2022/03/06 09:53:27;;;;;;;6.32;3.00;;;5.70;99.20;;;;;;5026762;28;20056;-60
2022/03/06 09:55:53;;;;;;;5.40;2.70;;;5.70;98.60;;;;;;5021496;28;20104;-58
2022/03/06 09:58:19;;;;;;;7.18;3.10;;;5.80;96.80;;;;;;5023375;28;20319;-60
2022/03/06 10:00:44;;;;;;;5.43;3.03;;;5.90;96.90;;;;;;5024634;28;20030;-62
2022/03/06 10:03:20;;;;;;;10.35;3.30;;;6.10;97.70;;;;;;5024635;28;20060;-61
2022/03/06 10:05:47;;;;;;;11.52;3.30;;;6.30;95.90;;;;;;5024442;28;20050;-60
2022/03/06 10:08:16;;;;;;;5.72;3.03;;;6.40;95.80;;;;;;5023061;28;20432;-60
2022/03/06 10:10:43;;;;;;;5.72;3.08;;;6.50;94.70;;;;;;5017252;28;20025;-61
2022/03/06 10:13:21;;;;;;;9.70;3.63;;;6.70;93.30;;;;;;5022140;28;20029;-58
2022/03/06 10:15:57;;;;;;;7.40;3.03;;;7.00;93.00;;;;;;5018427;28;20062;-62
2022/03/06 10:18:23;;;;;;;9.40;3.63;;;7.20;92.50;;;;;;5017930;28;20128;-62
2022/03/06 10:20:48;;;;;;;6.60;3.10;;;7.20;90.20;;;;;;5028302;28;20033;-61
2022/03/06 10:23:27;;;;;;;7.40;3.50;;;6.90;90.00;;;;;;5010696;28;20057;-61
2022/03/06 10:26:15;;;;;;;8.20;3.90;;;6.70;90.30;;;;;;5008837;28;20029;-61
2022/03/06 10:28:56;;;;;;;5.68;2.70;;;6.60;93.20;;;;;;5010349;28;20046;-60
2022/03/06 10:31:25;;;;;;;10.27;3.42;;;6.70;92.70;;;;;;5011313;28;20026;-60
2022/03/06 10:34:03;;;;;;;6.13;3.30;;;6.80;92.90;;;;;;5010139;28;20110;-60
2022/03/06 10:36:35;;;;;;;8.57;3.30;;;6.90;93.00;;;;;;5017192;28;20434;-61
2022/03/06 10:39:04;;;;;;;8.75;3.33;;;7.10;91.70;;;;;;5020247;28;20120;-60
2022/03/06 10:41:38;;;;;;;3.42;2.40;;;7.20;92.70;;;;;;5008983;28;20475;-58
2022/03/06 10:44:04;;;;;;;6.90;3.22;;;7.40;91.20;;;;;;5011040;28;20465;-58
2022/03/06 10:46:33;;;;;;;6.05;2.83;;;7.50;87.90;;;;;;5022247;28;20034;-58
2022/03/06 10:49:02;;;;;;;7.57;3.10;;;7.60;85.20;;;;;;5018098;28;20053;-56
2022/03/06 10:51:29;;;;;;;6.43;2.90;;;7.40;85.50;;;;;;5009727;28;20062;-59
2022/03/06 10:53:59;;;;;;;9.07;3.35;;;7.50;86.80;;;;;;5009694;28;20064;-55
2022/03/06 10:56:27;;;;;;;9.55;3.72;;;7.40;89.10;;;;;;5014721;28;20061;-59
2022/03/06 10:58:54;;;;;;;4.13;2.88;;;7.30;88.40;;;;;;5018854;28;20093;-60
2022/03/06 11:01:21;;;;;;;5.78;3.53;;;7.20;89.80;;;;;;5030310;28;20090;-59
2022/03/06 11:03:50;;;;;;;6.35;3.33;;;7.40;88.40;;;;;;5025346;28;20032;-59
2022/03/06 11:06:18;;;;;;;6.75;3.25;;;7.70;87.50;;;;;;5030091;28;20025;-59
2022/03/06 11:08:44;;;;;;;6.97;3.22;;;7.90;85.20;;;;;;5013820;28;20042;-59
2022/03/06 11:11:12;;;;;;;7.93;3.05;;;8.10;86.90;;;;;;5012943;28;20022;-59
2022/03/06 11:13:38;;;;;;;6.43;3.03;;;8.10;81.10;;;;;;4997723;28;20038;-59
2022/03/06 11:16:04;;;;;;;6.45;3.40;;;8.20;80.40;;;;;;5020715;28;20037;-61
2022/03/06 11:18:31;;;;;;;9.10;3.47;;;8.20;81.20;;;;;;5029848;28;20028;-58
2022/03/06 11:20:58;;;;;;;7.38;3.47;;;8.30;82.30;;;;;;5029415;28;20108;-56
2022/03/06 11:23:39;;;;;;;6.28;3.30;;;8.30;82.60;;;;;;5015071;28;20471;-57
2022/03/06 11:26:10;;;;;;;6.40;3.70;;;8.20;78.10;;;;;;5006995;28;20030;-55
2022/03/06 11:28:54;;;;;;;5.43;3.30;;;7.80;78.60;;;;;;5019922;28;20367;-56
2022/03/06 11:31:21;;;;;;;5.80;3.35;;;7.50;85.20;;;;;;5016487;28;20163;-55
2022/03/06 11:33:57;;;;;;;13.02;3.85;;;7.20;81.30;;;;;;5001007;28;20062;-53
2022/03/06 11:36:26;;;;;;;9.32;3.70;;;6.90;85.10;;;;;;5011179;28;20448;-55
2022/03/06 11:38:53;;;;;;;7.15;3.65;;;6.80;91.60;;;;;;5010186;28;20110;-55
2022/03/06 11:41:20;;;;;;;9.15;4.28;;;7.00;91.90;;;;;;5014818;28;20084;-54
2022/03/06 11:43:48;;;;;;;7.43;3.70;;;7.30;93.30;;;;;;5027495;28;20075;-53
2022/03/06 11:46:16;;;;;;;5.43;3.25;;;7.80;93.50;;;;;;5028235;28;20399;-54
2022/03/06 11:48:42;;;;;;;9.70;3.50;;;8.30;90.50;;;;;;5019587;28;20056;-53
2022/03/06 11:51:27;;;;;;;6.22;3.42;;;8.50;87.70;;;;;;4996860;28;20027;-54
2022/03/06 11:54:06;;;;;;;9.27;3.90;;;8.70;82.20;;;;;;5013327;28;20029;-54
2022/03/06 11:56:34;;;;;;;6.93;3.45;;;8.70;81.00;;;;;;5024537;28;20034;-54
2022/03/06 11:59:04;;;;;;;9.40;3.78;;;8.60;84.10;;;;;;5011327;28;20022;-53
2022/03/06 12:01:45;;;;;;;9.70;3.60;;;8.30;83.40;;;;;;5017022;28;20376;-53
2022/03/06 12:04:12;;;;;;;6.85;4.28;;;8.40;87.80;;;;;;5018680;28;20021;-53
2022/03/06 12:06:39;;;;;;;14.10;4.63;;;8.70;89.70;;;;;;4996712;28;20491;-57
2022/03/06 12:09:28;;;;;;;9.95;3.60;;;8.80;85.80;;;;;;4997451;28;20034;-55
2022/03/06 12:11:57;;;;;;;7.90;3.60;;;8.70;84.60;;;;;;4989395;28;20531;-56
2022/03/06 12:14:24;;;;;;;9.45;3.72;;;8.80;88.90;;;;;;4998188;28;20117;-54
2022/03/06 12:17:02;;;;;;;5.72;3.67;;;8.50;88.70;;;;;;5009448;28;20445;-57
2022/03/06 12:19:35;;;;;;;8.77;3.60;;;8.40;87.90;;;;;;5005378;28;20044;-57
2022/03/06 12:22:19;;;;;;;6.60;3.92;;;8.30;88.20;;;;;;5015149;28;20034;-57
2022/03/06 12:24:47;;;;;;;8.63;4.40;;;8.60;86.10;;;;;;5026133;28;20025;-57
2022/03/06 12:27:25;;;;;;;10.02;4.07;;;8.40;89.80;;;;;;5028503;28;20430;-57
2022/03/06 12:30:23;;;;;;;10.23;4.38;;;8.30;90.00;;;;;;5028157;28;20022;-58
2022/03/06 12:32:49;;;;;;;9.05;4.00;;;8.30;91.20;;;;;;5028001;28;20049;-60
2022/03/06 12:35:17;;;;;;;8.80;4.22;;;8.30;90.90;;;;;;5026724;28;20039;-59
2022/03/06 12:37:44;;;;;;;12.75;4.28;;;8.60;91.80;;;;;;5027602;28;20022;-58
2022/03/06 12:40:21;;;;;;;12.18;4.35;;;9.60;88.40;;;;;;5028678;28;20033;-59
2022/03/06 12:42:58;;;;;;;7.80;3.83;;;10.70;81.30;;;;;;5027749;28;20043;-59
2022/03/06 12:45:23;;;;;;;7.38;3.72;;;10.30;76.00;;;;;;5027886;28;20021;-59
2022/03/06 12:47:49;;;;;;;6.68;3.53;;;10.40;77.70;;;;;;5028840;28;20030;-57
2022/03/06 12:50:20;;;;;;;10.48;3.72;;;11.00;76.30;;;;;;5029011;28;20391;-57
2022/03/06 12:52:48;;;;;;;6.80;3.90;;;12.20;69.60;;;;;;5028877;28;20503;-60